Terminal Aerodrome Forecast
Issued by NWS Cleveland, OH

Home | Current Version | Previous Version | Text Only | Print | Product List | Glossary Off
Versions: 1 2 3 4 5 6 7 8 9 10 11 12 13 14 15

000
FTUS41 KCLE 202341
TAFERI
TAF
KERI 202341Z 2100/2124 18010KT P6SM SCT040
     FM210200 20010G16KT P6SM SCT045 OVC100
      TEMPO 2102/2106 6SM -SHRA BKN045
     FM210600 20014G20KT P6SM VCSH SCT025 BKN035
      TEMPO 2109/2113 BKN025
     FM211500 27014G22KT P6SM SCT030 BKN045=

USA.gov is the U.S. government's official web portal to all federal, state and local government web resources and services.